createdAt,value
2022-08-02T00:00:11.735Z,96.40
2022-08-02T00:02:38.535Z,96.50
2022-08-02T00:05:06.305Z,96.40
2022-08-02T00:07:36.463Z,96.60
2022-08-02T00:10:09.244Z,96.60
2022-08-02T00:12:36.324Z,96.50
2022-08-02T00:15:04.867Z,96.50
2022-08-02T00:17:31.631Z,96.70
2022-08-02T00:19:58.408Z,96.70
2022-08-02T00:22:25.059Z,96.70
2022-08-02T00:24:51.677Z,96.70
2022-08-02T00:27:18.293Z,96.50
2022-08-02T00:29:53.041Z,96.80
2022-08-02T00:32:20.576Z,97.00
2022-08-02T00:34:47.503Z,97.20
2022-08-02T00:37:14.596Z,97.20
2022-08-02T00:39:42.942Z,97.00
2022-08-02T00:42:10.936Z,96.80
2022-08-02T00:44:38.009Z,96.90
2022-08-02T00:47:04.890Z,97.00
2022-08-02T00:49:33.034Z,97.10
2022-08-02T00:52:00.488Z,97.00
2022-08-02T00:54:27.449Z,97.20
2022-08-02T00:56:54.174Z,97.20
2022-08-02T00:59:21.011Z,97.50
2022-08-02T01:01:57.244Z,97.40
2022-08-02T01:04:31.311Z,97.40
2022-08-02T01:07:00.292Z,97.40
2022-08-02T01:09:27.106Z,97.40
2022-08-02T01:11:53.774Z,97.50
2022-08-02T01:14:22.845Z,97.50
2022-08-02T01:17:15.601Z,97.60
2022-08-02T01:20:25.302Z,97.60
2022-08-02T01:23:18.143Z,97.70
2022-08-02T01:25:57.968Z,97.60
2022-08-02T01:28:49.253Z,98.00
2022-08-02T01:31:40.153Z,98.00
2022-08-02T01:34:41.067Z,98.10
2022-08-02T01:37:18.284Z,97.80
2022-08-02T01:39:48.605Z,98.10
2022-08-02T01:42:17.029Z,98.00
2022-08-02T01:44:45.744Z,98.30
2022-08-02T01:47:22.602Z,98.10
2022-08-02T01:49:53.305Z,98.30
2022-08-02T01:52:24.027Z,98.40
2022-08-02T01:55:01.651Z,98.30
2022-08-02T01:57:32.631Z,98.30
2022-08-02T02:00:01.479Z,98.60
2022-08-02T02:02:31.660Z,98.60
2022-08-02T02:05:01.123Z,98.40
2022-08-02T02:07:30.159Z,98.40
2022-08-02T02:09:58.641Z,98.40
2022-08-02T02:12:25.733Z,98.50
2022-08-02T02:14:54.600Z,98.70
2022-08-02T02:18:11.529Z,98.50
2022-08-02T02:20:19.933Z,98.60
2022-08-02T02:22:49.774Z,98.80
2022-08-02T02:25:19.118Z,98.80
2022-08-02T02:28:00.157Z,98.80
2022-08-02T02:30:28.798Z,98.90
2022-08-02T02:33:01.931Z,98.50
2022-08-02T02:35:33.851Z,98.90
2022-08-02T02:38:04.352Z,99.10
2022-08-02T02:40:32.770Z,99.00
2022-08-02T02:43:01.370Z,99.00
2022-08-02T02:45:30.161Z,99.00
2022-08-02T02:47:57.046Z,99.10
2022-08-02T02:50:25.416Z,99.30
2022-08-02T02:52:52.816Z,99.00
2022-08-02T02:55:19.873Z,99.10
2022-08-02T02:57:47.751Z,99.20
2022-08-02T03:00:15.190Z,99.20
2022-08-02T03:02:44.511Z,99.30
2022-08-02T03:05:12.964Z,99.40
2022-08-02T03:07:40.222Z,99.50
2022-08-02T03:10:07.863Z,99.50
2022-08-02T03:12:36.190Z,99.50
2022-08-02T03:15:07.603Z,99.50
2022-08-02T03:17:41.860Z,99.70
2022-08-02T03:20:14.771Z,99.70
2022-08-02T03:22:42.678Z,99.70
2022-08-02T03:25:10.926Z,99.70
2022-08-02T03:27:37.863Z,99.60
2022-08-02T03:30:07.004Z,99.90
2022-08-02T03:32:38.364Z,99.80
2022-08-02T03:35:06.941Z,99.80
2022-08-02T03:37:36.379Z,99.90
2022-08-02T03:40:06.704Z,99.90
2022-08-02T03:42:33.378Z,99.90
2022-08-02T03:45:07.725Z,99.90
2022-08-02T03:47:38.092Z,99.90
2022-08-02T03:50:06.146Z,99.90
2022-08-02T03:52:33.467Z,99.90
2022-08-02T03:55:00.498Z,99.90
2022-08-02T03:57:27.617Z,99.90
2022-08-02T03:59:54.497Z,99.90
2022-08-02T04:02:21.180Z,99.90
2022-08-02T04:04:47.805Z,99.90
2022-08-02T04:07:14.484Z,99.90
2022-08-02T04:10:01.089Z,99.90
2022-08-02T04:12:27.735Z,99.90
2022-08-02T04:14:54.555Z,99.90
2022-08-02T04:17:22.929Z,99.90
2022-08-02T04:19:55.955Z,99.90
2022-08-02T04:22:27.427Z,99.90
2022-08-02T04:24:59.755Z,99.90
2022-08-02T04:28:15.308Z,99.90
2022-08-02T04:30:17.250Z,99.90
2022-08-02T04:32:45.585Z,99.90
2022-08-02T04:35:20.854Z,99.90
2022-08-02T04:38:09.293Z,99.90
2022-08-02T04:40:35.455Z,99.90
2022-08-02T04:43:02.133Z,99.90
2022-08-02T04:45:30.272Z,99.90
2022-08-02T04:48:04.605Z,99.90
2022-08-02T04:50:31.985Z,99.90
2022-08-02T04:52:58.648Z,99.90
2022-08-02T04:55:28.667Z,99.90
2022-08-02T04:57:57.688Z,99.90
2022-08-02T05:00:26.334Z,99.90
2022-08-02T05:02:54.171Z,99.90
2022-08-02T05:05:20.946Z,99.90
2022-08-02T05:07:47.681Z,99.90
2022-08-02T05:10:15.057Z,99.90
2022-08-02T05:12:41.871Z,99.90
2022-08-02T05:15:12.588Z,99.90
2022-08-02T05:17:47.787Z,99.90
2022-08-02T05:20:16.440Z,99.90
2022-08-02T05:22:43.551Z,99.90
2022-08-02T05:25:11.313Z,99.90
2022-08-02T05:27:38.039Z,99.90
2022-08-02T05:30:06.052Z,99.90
2022-08-02T05:32:32.863Z,99.90
2022-08-02T05:35:01.756Z,99.90
2022-08-02T05:37:32.250Z,99.90
2022-08-02T05:40:01.053Z,99.90
2022-08-02T05:42:31.204Z,99.90
2022-08-02T05:44:58.019Z,99.90
2022-08-02T05:47:25.780Z,99.90
2022-08-02T05:49:52.514Z,99.90
2022-08-02T05:52:20.431Z,99.60
2022-08-02T05:54:57.333Z,99.50
2022-08-02T05:57:43.394Z,98.50
2022-08-02T06:00:13.913Z,98.30
2022-08-02T06:02:50.319Z,97.80
2022-08-02T06:05:20.142Z,98.10
2022-08-02T06:07:48.348Z,97.90
2022-08-02T06:10:17.296Z,97.80
2022-08-02T06:13:07.259Z,97.70
2022-08-02T06:15:34.920Z,97.50
2022-08-02T06:18:08.217Z,97.10
2022-08-02T06:20:36.018Z,96.90
2022-08-02T06:23:10.821Z,96.40
2022-08-02T06:25:50.043Z,96.80
2022-08-02T06:28:19.941Z,96.50
2022-08-02T06:30:46.952Z,96.40
2022-08-02T06:33:14.015Z,96.60
2022-08-02T06:36:04.800Z,96.40
2022-08-02T06:38:41.858Z,97.00
2022-08-02T06:41:18.334Z,96.60
2022-08-02T06:44:13.715Z,96.50
2022-08-02T06:47:11.764Z,96.30
2022-08-02T06:49:52.181Z,95.80
2022-08-02T06:52:21.463Z,95.70
2022-08-02T06:54:50.910Z,96.40
2022-08-02T06:57:17.551Z,96.20
2022-08-02T06:59:44.208Z,96.10
2022-08-02T07:02:12.374Z,95.80
2022-08-02T07:04:39.340Z,95.60
2022-08-02T07:07:06.002Z,95.10
2022-08-02T07:09:32.632Z,94.80
2022-08-02T07:11:59.287Z,95.40
2022-08-02T07:14:25.930Z,95.50
2022-08-02T07:16:53.517Z,95.60
2022-08-02T07:19:20.281Z,95.20
2022-08-02T07:21:56.568Z,94.80
2022-08-02T07:24:26.113Z,94.40
2022-08-02T07:27:09.952Z,94.40
2022-08-02T07:29:46.793Z,94.70
2022-08-02T07:32:16.245Z,94.40
2022-08-02T07:34:50.286Z,94.60
2022-08-02T07:37:53.846Z,94.50
2022-08-02T07:40:11.929Z,94.70
2022-08-02T07:42:41.454Z,94.40
2022-08-02T07:45:08.517Z,93.80
2022-08-02T07:47:42.570Z,94.10
2022-08-02T07:50:12.011Z,94.40
2022-08-02T07:52:39.875Z,94.60
2022-08-02T07:55:06.924Z,94.30
2022-08-02T07:57:33.706Z,94.40
2022-08-02T08:00:00.515Z,93.70
2022-08-02T08:02:27.169Z,94.10
2022-08-02T08:04:53.988Z,94.10
2022-08-02T08:07:21.068Z,94.60
2022-08-02T08:09:50.730Z,94.40
2022-08-02T08:12:20.840Z,94.40
2022-08-02T08:14:47.529Z,94.00
2022-08-02T08:17:14.353Z,93.80
2022-08-02T08:19:51.432Z,93.10
2022-08-02T08:22:20.055Z,93.30
2022-08-02T08:24:48.058Z,92.90
2022-08-02T08:27:15.625Z,93.40
2022-08-02T08:29:43.241Z,93.10
2022-08-02T08:32:15.731Z,93.10
2022-08-02T08:34:43.657Z,93.40
2022-08-02T08:37:16.557Z,93.30
2022-08-02T08:39:56.512Z,93.60
2022-08-02T08:42:24.486Z,93.20
2022-08-02T08:44:51.455Z,92.70
2022-08-02T08:47:19.146Z,92.90
2022-08-02T08:49:52.762Z,92.60
2022-08-02T08:52:22.960Z,92.30
2022-08-02T08:54:50.455Z,91.60
2022-08-02T08:57:19.244Z,92.40
2022-08-02T08:59:46.716Z,91.30
2022-08-02T09:02:20.392Z,91.50
2022-08-02T09:04:55.002Z,92.10
2022-08-02T09:07:25.411Z,92.10
2022-08-02T09:09:52.092Z,92.30
2022-08-02T09:12:25.074Z,91.60
2022-08-02T09:14:52.055Z,91.10
2022-08-02T09:17:18.943Z,91.40
2022-08-02T09:20:05.597Z,91.60
2022-08-02T09:22:32.227Z,90.80
2022-08-02T09:24:58.906Z,90.60
2022-08-02T09:27:25.657Z,91.20
2022-08-02T09:30:12.666Z,90.70
2022-08-02T09:32:48.382Z,90.50
2022-08-02T09:36:06.691Z,90.40
2022-08-02T09:38:26.644Z,90.00
2022-08-02T09:40:53.571Z,90.70
2022-08-02T09:43:20.928Z,89.90
2022-08-02T09:45:47.576Z,90.40
2022-08-02T09:48:14.213Z,90.10
2022-08-02T09:50:42.294Z,90.10
2022-08-02T09:53:13.868Z,90.10
2022-08-02T09:55:42.198Z,90.00
2022-08-02T09:58:21.693Z,90.30
2022-08-02T10:00:56.063Z,89.80
2022-08-02T10:03:23.054Z,89.70
2022-08-02T10:06:02.097Z,89.30
2022-08-02T10:08:32.709Z,88.20
2022-08-02T10:11:00.864Z,88.00
2022-08-02T10:13:32.946Z,87.10
2022-08-02T10:16:00.073Z,86.20
2022-08-02T10:18:38.729Z,86.40
2022-08-02T10:21:11.554Z,85.70
2022-08-02T10:23:40.635Z,85.30
2022-08-02T10:26:08.752Z,85.00
2022-08-02T10:28:37.520Z,84.40
2022-08-02T10:31:06.213Z,85.30
2022-08-02T10:33:36.213Z,86.10
2022-08-02T10:36:07.582Z,85.30
2022-08-02T10:38:35.968Z,81.10
2022-08-02T10:41:03.073Z,82.70
2022-08-02T10:43:32.844Z,80.60
2022-08-02T10:46:33.390Z,79.50
2022-08-02T10:49:39.329Z,76.80
2022-08-02T10:52:08.726Z,77.00
2022-08-02T10:54:38.704Z,79.00
2022-08-02T10:57:27.058Z,77.30
2022-08-02T11:00:25.198Z,77.70
2022-08-02T11:02:53.802Z,77.50
2022-08-02T11:05:43.359Z,78.40
2022-08-02T11:08:23.142Z,77.80
2022-08-02T11:10:49.946Z,76.50
2022-08-02T11:13:19.518Z,75.40
2022-08-02T11:15:49.724Z,75.60
2022-08-02T11:18:16.653Z,75.40
2022-08-02T11:20:43.619Z,76.80
2022-08-02T11:23:44.378Z,76.40
2022-08-02T11:26:30.800Z,76.70
2022-08-02T11:29:00.066Z,77.70
2022-08-02T11:31:27.614Z,76.30
2022-08-02T11:33:54.783Z,76.10
2022-08-02T11:36:22.880Z,75.50
2022-08-02T11:38:49.746Z,73.60
2022-08-02T11:41:46.105Z,72.90
2022-08-02T11:44:12.099Z,73.10
2022-08-02T11:46:38.801Z,74.20
2022-08-02T11:49:17.285Z,75.00
2022-08-02T11:51:59.510Z,73.90
2022-08-02T11:54:32.005Z,75.20
2022-08-02T11:57:22.092Z,75.20
2022-08-02T11:59:52.947Z,74.60
2022-08-02T12:02:28.778Z,72.80
2022-08-02T12:05:08.925Z,72.00
2022-08-02T12:07:45.520Z,71.90
2022-08-02T12:10:19.667Z,73.20
2022-08-02T12:12:58.045Z,74.10
2022-08-02T12:15:38.035Z,72.70
2022-08-02T12:18:28.432Z,73.70
2022-08-02T12:20:55.164Z,73.10
2022-08-02T12:23:22.111Z,73.50
2022-08-02T12:26:04.018Z,72.50
2022-08-02T12:28:34.786Z,72.90
2022-08-02T12:31:02.307Z,72.90
2022-08-02T12:33:44.956Z,72.70
2022-08-02T12:36:23.888Z,73.40
2022-08-02T12:38:57.771Z,74.60
2022-08-02T12:41:31.164Z,73.60
2022-08-02T12:43:59.521Z,73.20
2022-08-02T12:46:26.143Z,71.20
2022-08-02T12:49:16.737Z,72.20
2022-08-02T12:51:56.903Z,73.60
2022-08-02T12:54:32.636Z,72.30
2022-08-02T12:57:19.793Z,71.90
2022-08-02T12:59:52.343Z,73.10
2022-08-02T13:02:20.060Z,74.60
2022-08-02T13:04:49.925Z,74.60
2022-08-02T13:07:18.237Z,72.10
2022-08-02T13:09:46.702Z,72.20
2022-08-02T13:12:14.327Z,71.80
2022-08-02T13:14:42.622Z,70.30
2022-08-02T13:17:10.364Z,70.00
2022-08-02T13:19:38.502Z,69.50
2022-08-02T13:22:05.669Z,69.60
2022-08-02T13:24:41.185Z,69.20
2022-08-02T13:27:21.266Z,69.00
2022-08-02T13:29:49.357Z,69.70
2022-08-02T13:32:17.045Z,69.40
2022-08-02T13:34:44.109Z,69.80
2022-08-02T13:37:11.068Z,69.50
2022-08-02T13:39:37.741Z,68.80
2022-08-02T13:42:05.585Z,68.80
2022-08-02T13:44:32.990Z,68.10
2022-08-02T13:46:59.696Z,67.60
2022-08-02T13:49:50.658Z,67.50
2022-08-02T13:52:13.688Z,68.00
2022-08-02T13:54:40.707Z,69.80
2022-08-02T13:57:07.445Z,69.00
2022-08-02T13:59:56.539Z,69.30
2022-08-02T14:02:20.992Z,70.50
2022-08-02T14:04:47.621Z,68.80
2022-08-02T14:07:14.362Z,70.20
2022-08-02T14:09:41.018Z,70.50
2022-08-02T14:12:09.984Z,70.10
2022-08-02T14:14:36.899Z,70.50
2022-08-02T14:17:03.740Z,70.80
2022-08-02T14:19:30.608Z,70.60
2022-08-02T14:22:11.208Z,70.60
2022-08-02T14:24:39.350Z,70.10
2022-08-02T14:27:06.018Z,70.20
2022-08-02T14:29:32.656Z,70.50
2022-08-02T14:31:59.337Z,70.90
2022-08-02T14:34:25.982Z,71.30
2022-08-02T14:36:54.121Z,70.80
2022-08-02T14:39:21.117Z,71.80
2022-08-02T14:41:59.218Z,72.20
2022-08-02T14:44:27.192Z,71.80
2022-08-02T14:46:54.225Z,72.10
2022-08-02T14:49:25.806Z,72.40
2022-08-02T14:51:54.365Z,72.70
2022-08-02T14:54:27.846Z,72.40
2022-08-02T14:57:01.614Z,72.40
2022-08-02T14:59:29.197Z,73.00
2022-08-02T15:01:56.009Z,72.80
2022-08-02T15:04:22.865Z,73.20
2022-08-02T15:06:49.628Z,73.10
2022-08-02T15:09:16.283Z,73.90
2022-08-02T15:11:47.969Z,73.80
2022-08-02T15:14:25.597Z,73.80
2022-08-02T15:16:56.571Z,73.80
2022-08-02T15:19:28.684Z,73.20
2022-08-02T15:22:13.705Z,73.60
2022-08-02T15:24:44.399Z,73.30
2022-08-02T15:27:13.577Z,73.50
2022-08-02T15:29:41.282Z,73.70
2022-08-02T15:32:09.255Z,73.00
2022-08-02T15:34:36.216Z,73.10
2022-08-02T15:37:02.944Z,73.60
2022-08-02T15:39:29.939Z,74.00
2022-08-02T15:41:56.805Z,73.40
2022-08-02T15:44:24.801Z,73.50
2022-08-02T15:46:51.684Z,72.90
2022-08-02T15:49:20.356Z,73.40
2022-08-02T15:51:47.124Z,73.10
2022-08-02T15:54:13.780Z,73.10
2022-08-02T15:56:40.410Z,73.20
2022-08-02T15:59:07.162Z,72.60
2022-08-02T16:01:37.894Z,73.60
2022-08-02T16:04:06.951Z,73.40
2022-08-02T16:06:34.745Z,73.70
2022-08-02T16:09:01.925Z,74.20
2022-08-02T16:11:29.033Z,75.10
2022-08-02T16:13:56.634Z,75.30
2022-08-02T16:16:28.434Z,75.00
2022-08-02T16:18:55.780Z,75.60
2022-08-02T16:21:23.513Z,76.00
2022-08-02T16:23:58.637Z,76.20
2022-08-02T16:26:30.839Z,76.40
2022-08-02T16:28:58.482Z,76.60
2022-08-02T16:31:25.184Z,77.20
2022-08-02T16:33:56.398Z,77.40
2022-08-02T16:36:24.953Z,77.20
2022-08-02T16:38:53.158Z,77.40
2022-08-02T16:41:20.424Z,77.70
2022-08-02T16:43:47.111Z,78.10
2022-08-02T16:46:13.795Z,78.20
2022-08-02T16:48:40.625Z,78.10
2022-08-02T16:51:13.531Z,77.90
2022-08-02T16:54:00.352Z,78.70
2022-08-02T16:56:28.401Z,78.30
2022-08-02T16:58:55.313Z,78.50
2022-08-02T17:01:27.447Z,78.70
2022-08-02T17:03:56.254Z,78.70
2022-08-02T17:06:26.201Z,78.20
2022-08-02T17:08:56.289Z,78.50
2022-08-02T17:11:23.701Z,79.10
2022-08-02T17:13:51.826Z,79.10
2022-08-02T17:16:20.892Z,79.50
2022-08-02T17:18:54.045Z,79.20
2022-08-02T17:21:21.255Z,79.30
2022-08-02T17:24:04.908Z,79.60
2022-08-02T17:26:34.629Z,79.60
2022-08-02T17:29:16.476Z,80.30
2022-08-02T17:32:05.005Z,80.40
2022-08-02T17:34:34.486Z,80.10
2022-08-02T17:37:01.150Z,80.10
2022-08-02T17:39:33.988Z,79.70
2022-08-02T17:42:01.510Z,80.10
2022-08-02T17:44:37.636Z,79.60
2022-08-02T17:47:11.731Z,79.60
2022-08-02T17:49:43.771Z,79.80
2022-08-02T17:52:52.515Z,79.40
2022-08-02T17:55:03.220Z,79.80
2022-08-02T17:57:56.266Z,80.20
2022-08-02T18:00:18.190Z,80.20
2022-08-02T18:02:52.859Z,80.30
2022-08-02T18:05:22.766Z,79.90
2022-08-02T18:07:55.353Z,80.10
2022-08-02T18:10:23.599Z,80.70
2022-08-02T18:12:53.360Z,80.30
2022-08-02T18:15:23.015Z,80.80
2022-08-02T18:17:49.643Z,81.10
2022-08-02T18:20:17.214Z,80.80
2022-08-02T18:22:44.829Z,80.70
2022-08-02T18:25:11.838Z,80.60
2022-08-02T18:27:58.510Z,80.50
2022-08-02T18:30:28.362Z,80.50
2022-08-02T18:33:57.002Z,80.90
2022-08-02T18:35:43.605Z,80.20
2022-08-02T18:38:11.555Z,80.50
2022-08-02T18:40:39.198Z,80.80
2022-08-02T18:43:07.671Z,81.00
2022-08-02T18:46:04.570Z,81.30
2022-08-02T18:48:21.938Z,81.00
2022-08-02T18:50:49.021Z,80.70
2022-08-02T18:53:27.989Z,81.40
2022-08-02T18:56:06.819Z,81.70
2022-08-02T18:58:35.099Z,81.80
2022-08-02T19:01:05.180Z,82.20
2022-08-02T19:03:41.615Z,83.10
2022-08-02T19:06:19.635Z,83.40
2022-08-02T19:09:05.995Z,83.70
2022-08-02T19:11:34.949Z,84.20
2022-08-02T19:14:02.162Z,84.60
2022-08-02T19:16:37.643Z,85.50
2022-08-02T19:19:05.533Z,85.70
2022-08-02T19:22:17.276Z,86.10
2022-08-02T19:24:19.062Z,86.20
2022-08-02T19:26:51.919Z,86.60
2022-08-02T19:32:39.306Z,86.80
2022-08-02T19:34:55.749Z,86.90
2022-08-02T19:37:22.399Z,87.30
2022-08-02T19:39:49.144Z,87.40
2022-08-02T19:42:16.927Z,87.20
2022-08-02T19:44:45.875Z,88.00
2022-08-02T19:47:19.180Z,87.80
2022-08-02T19:49:48.735Z,88.00
2022-08-02T19:52:21.772Z,88.40
2022-08-02T19:54:55.944Z,88.80
2022-08-02T19:57:25.128Z,89.10
2022-08-02T19:59:52.911Z,88.10
2022-08-02T20:02:21.055Z,88.10
2022-08-02T20:04:50.391Z,88.30
2022-08-02T20:07:53.410Z,88.60
2022-08-02T20:10:11.215Z,88.30
2022-08-02T20:12:39.851Z,88.10
2022-08-02T20:15:14.602Z,88.30
2022-08-02T20:17:47.227Z,88.10
2022-08-02T20:20:14.479Z,88.40
2022-08-02T20:22:59.818Z,89.50
2022-08-02T20:25:26.534Z,89.10
2022-08-02T20:27:55.819Z,88.80
2022-08-02T20:30:25.501Z,89.30
2022-08-02T20:32:58.842Z,89.20
2022-08-02T20:35:29.344Z,90.00
2022-08-02T20:38:02.197Z,90.00
2022-08-02T20:40:29.737Z,90.10
2022-08-02T20:42:56.547Z,90.30
2022-08-02T20:45:25.169Z,90.40
2022-08-02T20:47:54.672Z,90.30
2022-08-02T20:50:41.303Z,90.80
2022-08-02T20:53:24.198Z,90.70
2022-08-02T20:55:54.827Z,90.90
2022-08-02T20:58:21.545Z,91.00
2022-08-02T21:00:56.663Z,91.40
2022-08-02T21:03:23.411Z,91.00
2022-08-02T21:05:54.944Z,91.80
2022-08-02T21:08:23.396Z,91.30
2022-08-02T21:10:52.056Z,91.70
2022-08-02T21:13:24.311Z,91.50
2022-08-02T21:15:55.040Z,91.70
2022-08-02T21:18:38.373Z,91.90
2022-08-02T21:21:08.746Z,92.20
2022-08-02T21:23:36.349Z,92.10
2022-08-02T21:26:04.104Z,92.30
2022-08-02T21:28:43.572Z,92.20
2022-08-02T21:31:15.374Z,92.20
2022-08-02T21:33:47.090Z,92.30
2022-08-02T21:36:31.385Z,92.40
2022-08-02T21:39:04.714Z,92.60
2022-08-02T21:41:39.917Z,92.70
2022-08-02T21:44:15.960Z,92.90
2022-08-02T21:46:49.190Z,93.00
2022-08-02T21:49:26.970Z,93.00
2022-08-02T21:52:07.076Z,93.10
2022-08-02T21:54:35.167Z,93.20
2022-08-02T21:57:01.888Z,93.00
2022-08-02T21:59:30.746Z,93.20
2022-08-02T22:01:59.590Z,93.30
2022-08-02T22:04:26.796Z,93.20
2022-08-02T22:06:55.091Z,93.40
2022-08-02T22:09:42.202Z,93.30
2022-08-02T22:12:10.164Z,93.50
2022-08-02T22:14:39.651Z,93.50
2022-08-02T22:17:08.688Z,93.70
2022-08-02T22:19:36.458Z,93.90
2022-08-02T22:22:03.336Z,93.80
2022-08-02T22:24:30.581Z,94.00
2022-08-02T22:26:57.561Z,93.90
2022-08-02T22:29:24.431Z,94.00
2022-08-02T22:31:52.366Z,94.10
2022-08-02T22:34:36.923Z,94.20
2022-08-02T22:37:07.486Z,94.40
2022-08-02T22:39:34.345Z,94.30
2022-08-02T22:44:47.797Z,94.30
2022-08-02T22:47:15.481Z,94.30
2022-08-02T22:49:51.581Z,94.40
2022-08-02T22:52:21.759Z,94.50
2022-08-02T22:54:48.821Z,94.50
2022-08-02T22:57:17.813Z,94.40
2022-08-02T22:58:48.175Z,86.80
2022-08-02T22:59:09.786Z,94.20
2022-08-02T22:59:57.955Z,94.60
2022-08-02T23:02:25.144Z,94.80
2022-08-02T23:04:52.016Z,94.90
2022-08-02T23:07:18.682Z,94.60
2022-08-02T23:09:45.366Z,94.60
2022-08-02T23:12:12.057Z,94.60
2022-08-02T23:14:38.722Z,94.60
2022-08-02T23:17:24.021Z,94.70
2022-08-02T23:19:50.682Z,94.70
2022-08-02T23:22:30.057Z,94.70
2022-08-02T23:25:00.187Z,94.70
2022-08-02T23:27:27.129Z,94.60
2022-08-02T23:29:53.856Z,94.30
2022-08-02T23:32:22.961Z,94.30
2022-08-02T23:34:56.476Z,94.50
2022-08-02T23:37:23.557Z,94.30
2022-08-02T23:39:50.383Z,94.50
2022-08-02T23:42:17.197Z,94.50
2022-08-02T23:44:44.064Z,94.60
2022-08-02T23:47:11.057Z,94.60
2022-08-02T23:49:37.910Z,94.70
2022-08-02T23:52:04.741Z,94.90
2022-08-02T23:54:31.410Z,94.90
2022-08-02T23:56:58.111Z,94.90
2022-08-02T23:59:24.881Z,95.20
